sensor_id;sensor_type;location;lat;lon;timestamp;P1;durP1;ratioP1;P2;durP2;ratioP2
20375;SDS011;10347;51.828;6.466;2023-02-19T00:01:18;26.92;;;14.00;;
20375;SDS011;10347;51.828;6.466;2023-02-19T00:03:53;21.63;;;13.75;;
20375;SDS011;10347;51.828;6.466;2023-02-19T00:06:20;24.38;;;13.75;;
20375;SDS011;10347;51.828;6.466;2023-02-19T00:08:47;22.17;;;13.25;;
20375;SDS011;10347;51.828;6.466;2023-02-19T00:11:14;30.73;;;14.75;;
20375;SDS011;10347;51.828;6.466;2023-02-19T00:13:43;21.63;;;12.88;;
20375;SDS011;10347;51.828;6.466;2023-02-19T00:16:14;23.58;;;13.23;;
20375;SDS011;10347;51.828;6.466;2023-02-19T00:18:46;27.33;;;13.95;;
20375;SDS011;10347;51.828;6.466;2023-02-19T00:21:12;22.27;;;13.80;;
20375;SDS011;10347;51.828;6.466;2023-02-19T00:23:38;18.70;;;12.27;;
20375;SDS011;10347;51.828;6.466;2023-02-19T00:26:04;20.52;;;12.88;;
20375;SDS011;10347;51.828;6.466;2023-02-19T00:28:31;25.10;;;14.20;;
20375;SDS011;10347;51.828;6.466;2023-02-19T00:31:04;22.55;;;12.88;;
20375;SDS011;10347;51.828;6.466;2023-02-19T00:33:36;23.10;;;13.57;;
20375;SDS011;10347;51.828;6.466;2023-02-19T00:36:02;25.05;;;13.38;;
20375;SDS011;10347;51.828;6.466;2023-02-19T00:38:29;24.45;;;13.07;;
20375;SDS011;10347;51.828;6.466;2023-02-19T00:40:55;27.13;;;13.20;;
20375;SDS011;10347;51.828;6.466;2023-02-19T00:43:23;33.67;;;14.48;;
20375;SDS011;10347;51.828;6.466;2023-02-19T00:45:48;25.00;;;13.43;;
20375;SDS011;10347;51.828;6.466;2023-02-19T00:48:14;25.08;;;13.48;;
20375;SDS011;10347;51.828;6.466;2023-02-19T00:50:39;23.45;;;13.48;;
20375;SDS011;10347;51.828;6.466;2023-02-19T00:53:05;23.80;;;12.13;;
20375;SDS011;10347;51.828;6.466;2023-02-19T00:55:31;23.73;;;12.70;;
20375;SDS011;10347;51.828;6.466;2023-02-19T00:57:56;29.40;;;14.30;;
20375;SDS011;10347;51.828;6.466;2023-02-19T01:00:22;25.15;;;13.05;;
20375;SDS011;10347;51.828;6.466;2023-02-19T01:02:47;26.33;;;12.70;;
20375;SDS011;10347;51.828;6.466;2023-02-19T01:05:13;35.30;;;14.57;;
20375;SDS011;10347;51.828;6.466;2023-02-19T01:07:38;28.27;;;13.63;;
20375;SDS011;10347;51.828;6.466;2023-02-19T01:10:04;23.02;;;11.95;;
20375;SDS011;10347;51.828;6.466;2023-02-19T01:12:30;22.92;;;11.63;;
20375;SDS011;10347;51.828;6.466;2023-02-19T01:14:56;24.48;;;12.18;;
20375;SDS011;10347;51.828;6.466;2023-02-19T01:17:22;23.95;;;12.20;;
20375;SDS011;10347;51.828;6.466;2023-02-19T01:19:48;25.27;;;12.65;;
20375;SDS011;10347;51.828;6.466;2023-02-19T01:22:13;20.98;;;12.48;;
20375;SDS011;10347;51.828;6.466;2023-02-19T01:24:39;21.52;;;11.57;;
20375;SDS011;10347;51.828;6.466;2023-02-19T01:27:05;19.98;;;12.27;;
20375;SDS011;10347;51.828;6.466;2023-02-19T01:29:30;22.08;;;11.75;;
20375;SDS011;10347;51.828;6.466;2023-02-19T01:31:56;23.92;;;13.00;;
20375;SDS011;10347;51.828;6.466;2023-02-19T01:34:21;21.17;;;11.48;;
20375;SDS011;10347;51.828;6.466;2023-02-19T01:36:47;20.60;;;11.63;;
20375;SDS011;10347;51.828;6.466;2023-02-19T01:39:12;23.00;;;11.18;;
20375;SDS011;10347;51.828;6.466;2023-02-19T01:41:39;22.88;;;11.05;;
20375;SDS011;10347;51.828;6.466;2023-02-19T01:46:40;18.42;;;10.40;;
20375;SDS011;10347;51.828;6.466;2023-02-19T01:49:08;18.83;;;10.15;;
20375;SDS011;10347;51.828;6.466;2023-02-19T01:51:38;21.77;;;10.27;;
20375;SDS011;10347;51.828;6.466;2023-02-19T01:54:07;16.42;;;9.77;;
20375;SDS011;10347;51.828;6.466;2023-02-19T01:56:36;15.50;;;9.25;;
20375;SDS011;10347;51.828;6.466;2023-02-19T01:59:04;18.50;;;9.30;;
20375;SDS011;10347;51.828;6.466;2023-02-19T02:01:30;16.25;;;9.45;;
20375;SDS011;10347;51.828;6.466;2023-02-19T02:03:56;15.65;;;9.48;;
20375;SDS011;10347;51.828;6.466;2023-02-19T02:06:23;18.38;;;9.70;;
20375;SDS011;10347;51.828;6.466;2023-02-19T02:08:55;20.45;;;11.05;;
20375;SDS011;10347;51.828;6.466;2023-02-19T02:11:47;20.63;;;11.40;;
20375;SDS011;10347;51.828;6.466;2023-02-19T02:14:16;30.95;;;13.98;;
20375;SDS011;10347;51.828;6.466;2023-02-19T02:24:47;29.35;;;14.27;;
20375;SDS011;10347;51.828;6.466;2023-02-19T02:32:29;22.88;;;12.20;;
20375;SDS011;10347;51.828;6.466;2023-02-19T02:35:04;28.30;;;12.65;;
20375;SDS011;10347;51.828;6.466;2023-02-19T02:37:34;28.15;;;12.77;;
20375;SDS011;10347;51.828;6.466;2023-02-19T02:40:02;26.95;;;12.55;;
20375;SDS011;10347;51.828;6.466;2023-02-19T02:42:29;27.42;;;11.15;;
20375;SDS011;10347;51.828;6.466;2023-02-19T02:44:57;21.40;;;11.35;;
20375;SDS011;10347;51.828;6.466;2023-02-19T02:50:49;26.58;;;11.77;;
20375;SDS011;10347;51.828;6.466;2023-02-19T02:53:46;27.83;;;10.68;;
20375;SDS011;10347;51.828;6.466;2023-02-19T02:56:33;23.58;;;10.25;;
20375;SDS011;10347;51.828;6.466;2023-02-19T02:59:00;25.42;;;10.85;;
20375;SDS011;10347;51.828;6.466;2023-02-19T03:01:29;20.65;;;9.40;;
20375;SDS011;10347;51.828;6.466;2023-02-19T03:04:26;20.40;;;9.30;;
20375;SDS011;10347;51.828;6.466;2023-02-19T03:06:58;22.52;;;10.05;;
20375;SDS011;10347;51.828;6.466;2023-02-19T03:09:31;20.63;;;9.55;;
20375;SDS011;10347;51.828;6.466;2023-02-19T03:12:04;21.15;;;8.50;;
20375;SDS011;10347;51.828;6.466;2023-02-19T03:14:51;24.70;;;9.10;;
20375;SDS011;10347;51.828;6.466;2023-02-19T03:17:43;25.63;;;9.23;;
20375;SDS011;10347;51.828;6.466;2023-02-19T03:20:32;28.08;;;10.43;;
20375;SDS011;10347;51.828;6.466;2023-02-19T03:23:01;22.48;;;8.80;;
20375;SDS011;10347;51.828;6.466;2023-02-19T03:25:27;22.63;;;10.13;;
20375;SDS011;10347;51.828;6.466;2023-02-19T03:28:16;18.80;;;8.38;;
20375;SDS011;10347;51.828;6.466;2023-02-19T03:31:05;22.23;;;8.45;;
20375;SDS011;10347;51.828;6.466;2023-02-19T03:33:36;19.70;;;8.02;;
20375;SDS011;10347;51.828;6.466;2023-02-19T03:36:04;22.42;;;8.40;;
20375;SDS011;10347;51.828;6.466;2023-02-19T03:38:42;19.90;;;8.23;;
20375;SDS011;10347;51.828;6.466;2023-02-19T03:41:20;22.95;;;8.35;;
20375;SDS011;10347;51.828;6.466;2023-02-19T03:44:09;18.35;;;7.93;;
20375;SDS011;10347;51.828;6.466;2023-02-19T03:46:56;19.45;;;7.65;;
20375;SDS011;10347;51.828;6.466;2023-02-19T03:52:10;17.05;;;7.20;;
20375;SDS011;10347;51.828;6.466;2023-02-19T03:55:05;21.20;;;8.80;;
20375;SDS011;10347;51.828;6.466;2023-02-19T04:02:37;18.33;;;7.50;;
20375;SDS011;10347;51.828;6.466;2023-02-19T04:05:27;16.77;;;7.38;;
20375;SDS011;10347;51.828;6.466;2023-02-19T04:07:56;18.25;;;7.18;;
20375;SDS011;10347;51.828;6.466;2023-02-19T04:10:26;20.33;;;8.07;;
20375;SDS011;10347;51.828;6.466;2023-02-19T04:13:05;19.15;;;7.78;;
20375;SDS011;10347;51.828;6.466;2023-02-19T04:15:34;14.55;;;7.07;;
20375;SDS011;10347;51.828;6.466;2023-02-19T04:18:03;16.17;;;6.80;;
20375;SDS011;10347;51.828;6.466;2023-02-19T04:20:36;19.92;;;8.13;;
20375;SDS011;10347;51.828;6.466;2023-02-19T04:23:05;17.92;;;6.97;;
20375;SDS011;10347;51.828;6.466;2023-02-19T04:25:31;18.17;;;7.00;;
20375;SDS011;10347;51.828;6.466;2023-02-19T04:27:58;18.50;;;7.25;;
20375;SDS011;10347;51.828;6.466;2023-02-19T04:30:23;16.17;;;6.78;;
20375;SDS011;10347;51.828;6.466;2023-02-19T04:32:49;17.05;;;6.65;;
20375;SDS011;10347;51.828;6.466;2023-02-19T04:35:15;15.10;;;6.93;;
20375;SDS011;10347;51.828;6.466;2023-02-19T04:37:40;16.35;;;7.07;;
20375;SDS011;10347;51.828;6.466;2023-02-19T04:40:06;18.35;;;7.00;;
20375;SDS011;10347;51.828;6.466;2023-02-19T04:42:32;15.73;;;6.57;;
20375;SDS011;10347;51.828;6.466;2023-02-19T04:44:58;15.07;;;6.30;;
20375;SDS011;10347;51.828;6.466;2023-02-19T04:47:23;17.25;;;6.75;;
20375;SDS011;10347;51.828;6.466;2023-02-19T04:49:49;12.82;;;7.05;;
20375;SDS011;10347;51.828;6.466;2023-02-19T04:52:14;12.93;;;6.30;;
20375;SDS011;10347;51.828;6.466;2023-02-19T04:54:40;13.13;;;6.57;;
20375;SDS011;10347;51.828;6.466;2023-02-19T04:57:06;14.85;;;6.30;;
20375;SDS011;10347;51.828;6.466;2023-02-19T04:59:31;13.18;;;6.50;;
20375;SDS011;10347;51.828;6.466;2023-02-19T05:01:57;11.60;;;6.55;;
20375;SDS011;10347;51.828;6.466;2023-02-19T05:04:22;14.95;;;6.78;;
20375;SDS011;10347;51.828;6.466;2023-02-19T05:06:48;13.02;;;7.05;;
20375;SDS011;10347;51.828;6.466;2023-02-19T05:09:14;16.20;;;8.23;;
20375;SDS011;10347;51.828;6.466;2023-02-19T05:11:40;18.42;;;8.48;;
20375;SDS011;10347;51.828;6.466;2023-02-19T05:14:05;18.27;;;8.20;;
20375;SDS011;10347;51.828;6.466;2023-02-19T05:16:31;15.35;;;7.22;;
20375;SDS011;10347;51.828;6.466;2023-02-19T05:18:57;13.75;;;7.10;;
20375;SDS011;10347;51.828;6.466;2023-02-19T05:21:23;13.55;;;6.65;;
20375;SDS011;10347;51.828;6.466;2023-02-19T05:23:48;14.18;;;7.28;;
20375;SDS011;10347;51.828;6.466;2023-02-19T05:26:15;17.70;;;7.22;;
20375;SDS011;10347;51.828;6.466;2023-02-19T05:28:44;15.02;;;7.43;;
20375;SDS011;10347;51.828;6.466;2023-02-19T05:31:11;15.35;;;6.95;;
20375;SDS011;10347;51.828;6.466;2023-02-19T05:33:37;13.20;;;6.90;;
20375;SDS011;10347;51.828;6.466;2023-02-19T05:36:04;14.98;;;6.72;;
20375;SDS011;10347;51.828;6.466;2023-02-19T05:38:31;12.05;;;6.80;;
20375;SDS011;10347;51.828;6.466;2023-02-19T05:41:05;11.80;;;6.22;;
20375;SDS011;10347;51.828;6.466;2023-02-19T05:43:41;13.50;;;7.32;;
20375;SDS011;10347;51.828;6.466;2023-02-19T05:46:09;10.20;;;6.00;;
20375;SDS011;10347;51.828;6.466;2023-02-19T05:48:36;17.15;;;6.82;;
20375;SDS011;10347;51.828;6.466;2023-02-19T05:51:03;12.45;;;6.63;;
20375;SDS011;10347;51.828;6.466;2023-02-19T05:53:30;12.63;;;6.18;;
20375;SDS011;10347;51.828;6.466;2023-02-19T05:55:56;13.02;;;6.45;;
20375;SDS011;10347;51.828;6.466;2023-02-19T05:58:22;10.50;;;5.75;;
20375;SDS011;10347;51.828;6.466;2023-02-19T06:00:48;13.07;;;5.72;;
20375;SDS011;10347;51.828;6.466;2023-02-19T06:03:14;10.00;;;5.55;;
20375;SDS011;10347;51.828;6.466;2023-02-19T06:05:39;10.60;;;5.60;;
20375;SDS011;10347;51.828;6.466;2023-02-19T06:08:05;15.32;;;5.88;;
20375;SDS011;10347;51.828;6.466;2023-02-19T06:10:31;14.35;;;5.82;;
20375;SDS011;10347;51.828;6.466;2023-02-19T06:12:56;14.25;;;5.95;;
20375;SDS011;10347;51.828;6.466;2023-02-19T06:15:22;11.20;;;5.85;;
20375;SDS011;10347;51.828;6.466;2023-02-19T06:17:47;9.00;;;5.28;;
20375;SDS011;10347;51.828;6.466;2023-02-19T06:20:13;8.52;;;5.53;;
20375;SDS011;10347;51.828;6.466;2023-02-19T06:22:39;8.90;;;5.03;;
20375;SDS011;10347;51.828;6.466;2023-02-19T06:25:04;6.93;;;5.15;;
20375;SDS011;10347;51.828;6.466;2023-02-19T06:27:32;10.82;;;5.80;;
20375;SDS011;10347;51.828;6.466;2023-02-19T06:29:57;14.80;;;5.80;;
20375;SDS011;10347;51.828;6.466;2023-02-19T06:32:23;17.85;;;6.32;;
20375;SDS011;10347;51.828;6.466;2023-02-19T06:34:49;12.93;;;5.85;;
20375;SDS011;10347;51.828;6.466;2023-02-19T06:37:15;13.05;;;5.93;;
20375;SDS011;10347;51.828;6.466;2023-02-19T06:39:40;11.02;;;5.78;;
20375;SDS011;10347;51.828;6.466;2023-02-19T06:42:06;12.13;;;5.88;;
20375;SDS011;10347;51.828;6.466;2023-02-19T06:44:31;15.52;;;6.30;;
20375;SDS011;10347;51.828;6.466;2023-02-19T06:46:57;11.77;;;5.65;;
20375;SDS011;10347;51.828;6.466;2023-02-19T06:49:22;11.45;;;5.53;;
20375;SDS011;10347;51.828;6.466;2023-02-19T06:51:48;14.70;;;5.82;;
20375;SDS011;10347;51.828;6.466;2023-02-19T06:54:13;15.70;;;6.28;;
20375;SDS011;10347;51.828;6.466;2023-02-19T06:56:40;10.98;;;5.80;;
20375;SDS011;10347;51.828;6.466;2023-02-19T06:59:09;15.85;;;6.45;;
20375;SDS011;10347;51.828;6.466;2023-02-19T07:01:36;10.18;;;6.22;;
20375;SDS011;10347;51.828;6.466;2023-02-19T07:04:03;10.77;;;5.57;;
20375;SDS011;10347;51.828;6.466;2023-02-19T07:06:29;10.60;;;5.60;;
20375;SDS011;10347;51.828;6.466;2023-02-19T07:08:56;16.42;;;6.30;;
20375;SDS011;10347;51.828;6.466;2023-02-19T07:11:22;9.80;;;5.60;;
20375;SDS011;10347;51.828;6.466;2023-02-19T07:13:52;10.85;;;5.65;;
20375;SDS011;10347;51.828;6.466;2023-02-19T07:16:19;10.02;;;5.18;;
20375;SDS011;10347;51.828;6.466;2023-02-19T07:18:45;7.95;;;4.85;;
20375;SDS011;10347;51.828;6.466;2023-02-19T07:21:12;15.48;;;5.40;;
20375;SDS011;10347;51.828;6.466;2023-02-19T07:23:39;10.00;;;4.88;;
20375;SDS011;10347;51.828;6.466;2023-02-19T07:26:12;11.63;;;5.63;;
20375;SDS011;10347;51.828;6.466;2023-02-19T07:28:39;12.30;;;5.38;;
20375;SDS011;10347;51.828;6.466;2023-02-19T07:31:09;12.18;;;5.35;;
20375;SDS011;10347;51.828;6.466;2023-02-19T07:33:35;15.00;;;5.78;;
20375;SDS011;10347;51.828;6.466;2023-02-19T07:36:00;10.77;;;4.80;;
20375;SDS011;10347;51.828;6.466;2023-02-19T07:38:27;11.88;;;5.30;;
20375;SDS011;10347;51.828;6.466;2023-02-19T07:40:56;10.73;;;4.97;;
20375;SDS011;10347;51.828;6.466;2023-02-19T07:43:23;12.85;;;4.88;;
20375;SDS011;10347;51.828;6.466;2023-02-19T07:45:50;11.77;;;5.30;;
20375;SDS011;10347;51.828;6.466;2023-02-19T07:48:16;11.25;;;5.00;;
20375;SDS011;10347;51.828;6.466;2023-02-19T07:50:41;12.93;;;5.25;;
20375;SDS011;10347;51.828;6.466;2023-02-19T07:53:14;14.50;;;5.80;;
20375;SDS011;10347;51.828;6.466;2023-02-19T07:55:39;11.68;;;5.32;;
20375;SDS011;10347;51.828;6.466;2023-02-19T07:58:05;10.30;;;4.90;;
20375;SDS011;10347;51.828;6.466;2023-02-19T08:00:30;10.27;;;5.32;;
20375;SDS011;10347;51.828;6.466;2023-02-19T08:02:56;10.90;;;5.38;;
20375;SDS011;10347;51.828;6.466;2023-02-19T08:05:25;12.38;;;5.88;;
20375;SDS011;10347;51.828;6.466;2023-02-19T08:07:55;11.98;;;6.03;;
20375;SDS011;10347;51.828;6.466;2023-02-19T08:10:22;16.77;;;6.43;;
20375;SDS011;10347;51.828;6.466;2023-02-19T08:13:10;10.82;;;5.43;;
20375;SDS011;10347;51.828;6.466;2023-02-19T08:15:46;18.92;;;6.47;;
20375;SDS011;10347;51.828;6.466;2023-02-19T08:18:17;14.90;;;6.43;;
20375;SDS011;10347;51.828;6.466;2023-02-19T08:20:44;13.15;;;6.32;;
20375;SDS011;10347;51.828;6.466;2023-02-19T08:23:10;11.15;;;5.95;;
20375;SDS011;10347;51.828;6.466;2023-02-19T08:25:37;10.70;;;5.68;;
20375;SDS011;10347;51.828;6.466;2023-02-19T08:28:03;9.02;;;5.72;;
20375;SDS011;10347;51.828;6.466;2023-02-19T08:30:30;11.63;;;5.90;;
20375;SDS011;10347;51.828;6.466;2023-02-19T08:32:57;11.90;;;5.53;;
20375;SDS011;10347;51.828;6.466;2023-02-19T08:35:23;12.30;;;6.30;;
20375;SDS011;10347;51.828;6.466;2023-02-19T08:37:49;17.02;;;5.85;;
20375;SDS011;10347;51.828;6.466;2023-02-19T08:40:15;10.68;;;5.57;;
20375;SDS011;10347;51.828;6.466;2023-02-19T08:42:40;9.77;;;6.15;;
20375;SDS011;10347;51.828;6.466;2023-02-19T08:45:06;10.10;;;5.70;;
20375;SDS011;10347;51.828;6.466;2023-02-19T08:47:35;12.52;;;6.38;;
20375;SDS011;10347;51.828;6.466;2023-02-19T08:50:02;10.07;;;6.18;;
20375;SDS011;10347;51.828;6.466;2023-02-19T08:52:29;10.23;;;5.80;;
20375;SDS011;10347;51.828;6.466;2023-02-19T08:54:55;9.77;;;5.85;;
20375;SDS011;10347;51.828;6.466;2023-02-19T08:57:20;12.20;;;6.63;;
20375;SDS011;10347;51.828;6.466;2023-02-19T08:59:46;12.02;;;6.60;;
20375;SDS011;10347;51.828;6.466;2023-02-19T09:02:12;14.35;;;7.60;;
20375;SDS011;10347;51.828;6.466;2023-02-19T09:04:38;9.90;;;6.70;;
20375;SDS011;10347;51.828;6.466;2023-02-19T09:07:04;12.65;;;7.20;;
20375;SDS011;10347;51.828;6.466;2023-02-19T09:09:32;16.08;;;7.13;;
20375;SDS011;10347;51.828;6.466;2023-02-19T09:11:57;10.35;;;6.70;;
20375;SDS011;10347;51.828;6.466;2023-02-19T09:14:23;11.68;;;6.93;;
20375;SDS011;10347;51.828;6.466;2023-02-19T09:16:49;10.50;;;6.68;;
20375;SDS011;10347;51.828;6.466;2023-02-19T09:19:14;11.27;;;6.10;;
20375;SDS011;10347;51.828;6.466;2023-02-19T09:21:41;10.38;;;6.10;;
20375;SDS011;10347;51.828;6.466;2023-02-19T09:24:07;14.93;;;7.10;;
20375;SDS011;10347;51.828;6.466;2023-02-19T09:26:33;13.65;;;6.70;;
20375;SDS011;10347;51.828;6.466;2023-02-19T09:28:59;12.57;;;6.72;;
20375;SDS011;10347;51.828;6.466;2023-02-19T09:31:24;12.20;;;7.05;;
20375;SDS011;10347;51.828;6.466;2023-02-19T09:33:50;12.57;;;7.20;;
20375;SDS011;10347;51.828;6.466;2023-02-19T09:36:16;15.35;;;7.07;;
20375;SDS011;10347;51.828;6.466;2023-02-19T09:38:42;10.15;;;6.38;;
20375;SDS011;10347;51.828;6.466;2023-02-19T09:41:13;12.38;;;7.28;;
20375;SDS011;10347;51.828;6.466;2023-02-19T09:43:42;14.27;;;6.93;;
20375;SDS011;10347;51.828;6.466;2023-02-19T09:46:10;9.75;;;6.28;;
20375;SDS011;10347;51.828;6.466;2023-02-19T09:48:58;14.85;;;7.38;;
20375;SDS011;10347;51.828;6.466;2023-02-19T09:51:31;10.50;;;6.15;;
20375;SDS011;10347;51.828;6.466;2023-02-19T09:54:00;13.07;;;6.63;;
20375;SDS011;10347;51.828;6.466;2023-02-19T09:56:28;15.88;;;6.30;;
20375;SDS011;10347;51.828;6.466;2023-02-19T09:58:54;10.25;;;6.00;;
20375;SDS011;10347;51.828;6.466;2023-02-19T10:01:23;13.05;;;6.00;;
20375;SDS011;10347;51.828;6.466;2023-02-19T10:03:53;16.10;;;6.55;;
20375;SDS011;10347;51.828;6.466;2023-02-19T10:06:23;17.60;;;6.68;;
20375;SDS011;10347;51.828;6.466;2023-02-19T10:08:55;13.52;;;6.47;;
20375;SDS011;10347;51.828;6.466;2023-02-19T10:11:34;12.05;;;5.78;;
20375;SDS011;10347;51.828;6.466;2023-02-19T10:14:04;11.18;;;6.05;;
20375;SDS011;10347;51.828;6.466;2023-02-19T10:16:33;12.43;;;5.90;;
20375;SDS011;10347;51.828;6.466;2023-02-19T10:19:05;10.25;;;6.57;;
20375;SDS011;10347;51.828;6.466;2023-02-19T10:21:34;10.73;;;6.43;;
20375;SDS011;10347;51.828;6.466;2023-02-19T10:24:03;12.13;;;6.20;;
20375;SDS011;10347;51.828;6.466;2023-02-19T10:26:30;9.68;;;6.15;;
20375;SDS011;10347;51.828;6.466;2023-02-19T10:28:59;13.65;;;5.82;;
20375;SDS011;10347;51.828;6.466;2023-02-19T10:31:25;9.82;;;5.90;;
20375;SDS011;10347;51.828;6.466;2023-02-19T10:33:52;12.65;;;6.15;;
20375;SDS011;10347;51.828;6.466;2023-02-19T10:36:36;16.50;;;6.70;;
20375;SDS011;10347;51.828;6.466;2023-02-19T10:39:07;13.02;;;6.43;;
20375;SDS011;10347;51.828;6.466;2023-02-19T10:41:45;10.18;;;6.07;;
20375;SDS011;10347;51.828;6.466;2023-02-19T10:46:46;12.88;;;5.90;;
20375;SDS011;10347;51.828;6.466;2023-02-19T10:51:46;8.90;;;5.80;;
20375;SDS011;10347;51.828;6.466;2023-02-19T10:54:15;9.80;;;5.80;;
20375;SDS011;10347;51.828;6.466;2023-02-19T10:56:42;7.30;;;5.30;;
20375;SDS011;10347;51.828;6.466;2023-02-19T11:01:52;8.23;;;5.03;;
20375;SDS011;10347;51.828;6.466;2023-02-19T11:04:22;9.73;;;5.18;;
20375;SDS011;10347;51.828;6.466;2023-02-19T11:06:48;6.00;;;5.20;;
20375;SDS011;10347;51.828;6.466;2023-02-19T11:11:49;10.43;;;6.32;;
20375;SDS011;10347;51.828;6.466;2023-02-19T11:14:18;5.75;;;4.68;;
20375;SDS011;10347;51.828;6.466;2023-02-19T11:16:51;4.30;;;3.10;;
20375;SDS011;10347;51.828;6.466;2023-02-19T11:19:39;2.35;;;2.25;;
20375;SDS011;10347;51.828;6.466;2023-02-19T11:24:55;1.70;;;1.60;;
20375;SDS011;10347;51.828;6.466;2023-02-19T11:27:23;1.58;;;1.58;;
20375;SDS011;10347;51.828;6.466;2023-02-19T11:29:49;1.70;;;1.60;;
20375;SDS011;10347;51.828;6.466;2023-02-19T11:34:51;1.75;;;1.65;;
20375;SDS011;10347;51.828;6.466;2023-02-19T11:37:36;1.52;;;1.52;;
20375;SDS011;10347;51.828;6.466;2023-02-19T11:40:23;1.40;;;1.40;;
20375;SDS011;10347;51.828;6.466;2023-02-19T11:43:02;1.55;;;1.55;;
20375;SDS011;10347;51.828;6.466;2023-02-19T11:45:46;1.77;;;1.67;;
20375;SDS011;10347;51.828;6.466;2023-02-19T11:51:41;2.70;;;2.50;;
20375;SDS011;10347;51.828;6.466;2023-02-19T11:57:27;2.20;;;2.10;;
20375;SDS011;10347;51.828;6.466;2023-02-19T12:00:19;2.65;;;2.45;;
20375;SDS011;10347;51.828;6.466;2023-02-19T12:21:29;1.80;;;1.70;;
20375;SDS011;10347;51.828;6.466;2023-02-19T12:25:02;1.30;;;1.30;;
20375;SDS011;10347;51.828;6.466;2023-02-19T12:27:14;1.70;;;1.60;;
20375;SDS011;10347;51.828;6.466;2023-02-19T12:32:55;2.00;;;1.90;;
20375;SDS011;10347;51.828;6.466;2023-02-19T12:35:49;1.50;;;1.40;;
20375;SDS011;10347;51.828;6.466;2023-02-19T12:38:25;1.35;;;1.35;;
20375;SDS011;10347;51.828;6.466;2023-02-19T12:41:08;1.67;;;1.60;;
20375;SDS011;10347;51.828;6.466;2023-02-19T12:43:52;1.75;;;1.65;;
20375;SDS011;10347;51.828;6.466;2023-02-19T12:46:27;1.50;;;1.45;;
20375;SDS011;10347;51.828;6.466;2023-02-19T12:48:55;1.60;;;1.60;;
20375;SDS011;10347;51.828;6.466;2023-02-19T12:51:35;1.38;;;1.38;;
20375;SDS011;10347;51.828;6.466;2023-02-19T12:54:11;1.15;;;1.15;;
20375;SDS011;10347;51.828;6.466;2023-02-19T12:57:17;1.48;;;1.48;;
20375;SDS011;10347;51.828;6.466;2023-02-19T12:59:54;1.30;;;1.30;;
20375;SDS011;10347;51.828;6.466;2023-02-19T13:02:29;1.27;;;1.27;;
20375;SDS011;10347;51.828;6.466;2023-02-19T13:05:05;1.20;;;1.20;;
20375;SDS011;10347;51.828;6.466;2023-02-19T13:07:41;1.58;;;1.48;;
20375;SDS011;10347;51.828;6.466;2023-02-19T13:10:21;1.20;;;1.20;;
20375;SDS011;10347;51.828;6.466;2023-02-19T13:13:13;1.45;;;1.35;;
20375;SDS011;10347;51.828;6.466;2023-02-19T13:15:46;1.30;;;1.30;;
20375;SDS011;10347;51.828;6.466;2023-02-19T13:18:26;1.35;;;1.35;;
20375;SDS011;10347;51.828;6.466;2023-02-19T13:20:59;1.40;;;1.40;;
20375;SDS011;10347;51.828;6.466;2023-02-19T13:23:35;1.30;;;1.30;;
20375;SDS011;10347;51.828;6.466;2023-02-19T13:26:35;2.90;;;2.63;;
20375;SDS011;10347;51.828;6.466;2023-02-19T13:37:17;4.18;;;3.78;;
20375;SDS011;10347;51.828;6.466;2023-02-19T13:39:46;3.65;;;3.35;;
20375;SDS011;10347;51.828;6.466;2023-02-19T13:42:27;2.90;;;2.70;;
20375;SDS011;10347;51.828;6.466;2023-02-19T13:44:57;2.72;;;2.50;;
20375;SDS011;10347;51.828;6.466;2023-02-19T13:50:16;3.00;;;2.80;;
20375;SDS011;10347;51.828;6.466;2023-02-19T13:52:53;3.15;;;2.75;;
20375;SDS011;10347;51.828;6.466;2023-02-19T14:06:18;2.15;;;2.05;;
20375;SDS011;10347;51.828;6.466;2023-02-19T14:08:44;3.10;;;2.55;;
20375;SDS011;10347;51.828;6.466;2023-02-19T14:28:03;2.45;;;2.35;;
20375;SDS011;10347;51.828;6.466;2023-02-19T14:30:57;2.47;;;2.28;;
20375;SDS011;10347;51.828;6.466;2023-02-19T14:33:39;2.45;;;2.30;;
20375;SDS011;10347;51.828;6.466;2023-02-19T14:36:14;2.40;;;2.30;;
20375;SDS011;10347;51.828;6.466;2023-02-19T14:39:00;2.70;;;2.50;;
20375;SDS011;10347;51.828;6.466;2023-02-19T14:41:29;2.30;;;2.20;;
20375;SDS011;10347;51.828;6.466;2023-02-19T14:43:57;2.50;;;2.30;;
20375;SDS011;10347;51.828;6.466;2023-02-19T14:46:36;2.80;;;2.60;;
20375;SDS011;10347;51.828;6.466;2023-02-19T14:49:06;2.10;;;2.00;;
20375;SDS011;10347;51.828;6.466;2023-02-19T14:51:40;2.67;;;2.47;;
20375;SDS011;10347;51.828;6.466;2023-02-19T14:54:13;2.60;;;2.40;;
20375;SDS011;10347;51.828;6.466;2023-02-19T14:56:55;2.75;;;2.60;;
20375;SDS011;10347;51.828;6.466;2023-02-19T14:59:24;2.70;;;2.50;;
20375;SDS011;10347;51.828;6.466;2023-02-19T15:04:24;3.08;;;2.80;;
20375;SDS011;10347;51.828;6.466;2023-02-19T15:06:53;2.40;;;2.30;;
20375;SDS011;10347;51.828;6.466;2023-02-19T15:09:20;2.67;;;2.47;;
20375;SDS011;10347;51.828;6.466;2023-02-19T15:11:53;2.75;;;2.55;;
20375;SDS011;10347;51.828;6.466;2023-02-19T15:14:20;2.70;;;2.50;;
20375;SDS011;10347;51.828;6.466;2023-02-19T15:16:55;2.45;;;2.28;;
20375;SDS011;10347;51.828;6.466;2023-02-19T15:19:26;3.53;;;3.22;;
20375;SDS011;10347;51.828;6.466;2023-02-19T15:21:53;3.00;;;2.80;;
20375;SDS011;10347;51.828;6.466;2023-02-19T15:24:19;2.72;;;2.53;;
20375;SDS011;10347;51.828;6.466;2023-02-19T15:26:46;2.47;;;2.38;;
20375;SDS011;10347;51.828;6.466;2023-02-19T15:29:19;2.30;;;2.20;;
20375;SDS011;10347;51.828;6.466;2023-02-19T15:31:55;2.10;;;2.00;;
20375;SDS011;10347;51.828;6.466;2023-02-19T15:34:23;2.13;;;2.03;;
20375;SDS011;10347;51.828;6.466;2023-02-19T15:36:50;2.00;;;1.90;;
20375;SDS011;10347;51.828;6.466;2023-02-19T15:39:20;2.70;;;2.50;;
20375;SDS011;10347;51.828;6.466;2023-02-19T15:41:58;2.30;;;2.20;;
20375;SDS011;10347;51.828;6.466;2023-02-19T15:44:40;2.75;;;2.55;;
20375;SDS011;10347;51.828;6.466;2023-02-19T15:47:33;2.47;;;2.35;;
20375;SDS011;10347;51.828;6.466;2023-02-19T15:50:15;2.60;;;2.40;;
20375;SDS011;10347;51.828;6.466;2023-02-19T15:52:53;2.90;;;2.70;;
20375;SDS011;10347;51.828;6.466;2023-02-19T15:55:27;2.90;;;2.70;;
20375;SDS011;10347;51.828;6.466;2023-02-19T16:01:02;2.58;;;2.47;;
20375;SDS011;10347;51.828;6.466;2023-02-19T16:03:32;2.70;;;2.50;;
20375;SDS011;10347;51.828;6.466;2023-02-19T16:08:39;3.42;;;3.08;;
20375;SDS011;10347;51.828;6.466;2023-02-19T16:11:26;4.80;;;3.28;;
20375;SDS011;10347;51.828;6.466;2023-02-19T16:16:42;4.32;;;3.92;;
20375;SDS011;10347;51.828;6.466;2023-02-19T16:19:09;5.43;;;4.32;;
20375;SDS011;10347;51.828;6.466;2023-02-19T16:21:35;4.72;;;3.88;;
20375;SDS011;10347;51.828;6.466;2023-02-19T16:24:14;4.63;;;4.00;;
20375;SDS011;10347;51.828;6.466;2023-02-19T16:26:42;4.13;;;3.72;;
20375;SDS011;10347;51.828;6.466;2023-02-19T16:29:19;3.67;;;3.38;;
20375;SDS011;10347;51.828;6.466;2023-02-19T16:31:48;6.00;;;5.50;;
20375;SDS011;10347;51.828;6.466;2023-02-19T16:34:16;4.68;;;4.38;;
20375;SDS011;10347;51.828;6.466;2023-02-19T16:36:51;3.60;;;3.40;;
20375;SDS011;10347;51.828;6.466;2023-02-19T16:39:17;5.53;;;5.10;;
20375;SDS011;10347;51.828;6.466;2023-02-19T16:46:56;5.20;;;4.15;;
20375;SDS011;10347;51.828;6.466;2023-02-19T16:49:24;6.78;;;5.40;;
20375;SDS011;10347;51.828;6.466;2023-02-19T16:51:50;6.20;;;5.60;;
20375;SDS011;10347;51.828;6.466;2023-02-19T16:54:15;6.32;;;5.72;;
20375;SDS011;10347;51.828;6.466;2023-02-19T16:56:41;12.15;;;10.98;;
20375;SDS011;10347;51.828;6.466;2023-02-19T16:59:06;7.20;;;6.60;;
20375;SDS011;10347;51.828;6.466;2023-02-19T17:01:32;4.90;;;4.40;;